Pine Valley, California
Current Conditions -  °F | °C
As of 1:41 AM on Wednesday 22 Oct 2014 (Local Time) from KRNM Reporting Station
Haze Haze  
Wind Chill:   Ceiling: 200
Heat Index:   Visibility: 1.5mi
Dew Point:   Wind: 0mph
Humidity: 93%   Direction: NA
Pressure: 29.92"   Gusts: NA
Location:  32.86°N, 116.5°W
Report Text: KRNM 220841Z 00000KT 1 1/2SM BR BKN002 08/07 A2992 RMK AO2 T00780067
Loading
Personal Weather Stations






























Interactive Weather Map
Tropical Storm Tracking
New forecast layout! Learn more

10-Day Weather Forecast

Advertisements
Track Severe Weather on mobile